Time;durP1;ratioP1;P1;durP2;ratioP2;P2;SDS_P1;SDS_P2;PMS_P1;PMS_P2;Temp;Humidity;BMP_temperature;BMP_pressure;BME280_temperature;BME280_humidity;BME280_pressure;Samples;Min_cycle;Max_cycle;Signal;HPM_P1;HPM_P2
2022/01/11 00:01:29;;;;;;;24.48;15.27;;;;;;;2.35;80.91;101220.75;5015322;28;20456;-55
2022/01/11 00:04:06;;;;;;;22.40;15.63;;;;;;;2.36;80.76;101225.09;5015494;28;20659;-55
2022/01/11 00:06:38;;;;;;;21.08;14.80;;;;;;;2.36;81.21;101226.75;5014784;28;20038;-55
2022/01/11 00:09:18;;;;;;;18.77;13.43;;;;;;;2.36;81.35;101234.41;5014938;28;20068;-54
2022/01/11 00:11:43;;;;;;;22.00;15.25;;;;;;;2.38;81.20;101237.97;5015149;28;20517;-55
2022/01/11 00:14:15;;;;;;;26.73;14.80;;;;;;;2.36;80.87;101232.75;4997702;28;20065;-55
2022/01/11 00:16:46;;;;;;;18.05;14.35;;;;;;;2.36;81.25;101234.41;5015187;28;20125;-54
2022/01/11 00:19:15;;;;;;;20.60;13.25;;;;;;;2.35;81.23;101242.88;5014200;28;20034;-55
2022/01/11 00:21:46;;;;;;;19.02;12.52;;;;;;;2.35;81.05;101253.09;5015034;28;20463;-55
2022/01/11 00:24:32;;;;;;;22.95;14.02;;;;;;;2.34;80.96;101249.69;4997207;28;20057;-54
2022/01/11 00:27:06;;;;;;;20.92;13.65;;;;;;;2.34;81.09;101252.22;5015046;28;20117;-55
2022/01/11 00:29:37;;;;;;;18.38;12.98;;;;;;;2.33;80.99;101250.47;4980795;28;20494;-55
2022/01/11 00:32:10;;;;;;;18.80;13.00;;;;;;;2.32;81.13;101250.38;4997299;28;20073;-54
2022/01/11 00:34:47;;;;;;;19.23;13.20;;;;;;;2.30;80.93;101252.78;4981459;28;20421;-55
2022/01/11 00:37:14;;;;;;;16.58;12.05;;;;;;;2.30;80.84;101260.47;4981121;28;20276;-55
2022/01/11 00:39:42;;;;;;;17.10;11.70;;;;;;;2.32;80.69;101258.91;5014806;28;20088;-55
2022/01/11 00:42:12;;;;;;;18.30;12.35;;;;;;;2.33;80.76;101258.13;4996890;28;20038;-55
2022/01/11 00:44:41;;;;;;;18.88;12.75;;;;;;;2.35;80.87;101260.78;5014574;28;20493;-54
2022/01/11 00:47:10;;;;;;;16.65;11.20;;;;;;;2.34;81.20;101262.47;4980735;28;20037;-55
2022/01/11 00:49:40;;;;;;;16.88;11.85;;;;;;;2.36;81.06;101253.22;4980563;28;20080;-55
2022/01/11 00:52:06;;;;;;;18.88;12.00;;;;;;;2.37;81.01;101260.13;4997116;28;20038;-54
2022/01/11 00:54:32;;;;;;;16.80;11.38;;;;;;;2.37;81.03;101264.34;4997022;28;20038;-55
2022/01/11 00:56:59;;;;;;;20.10;11.57;;;;;;;2.37;80.85;101257.56;5014108;28;20080;-54
2022/01/11 00:59:25;;;;;;;18.58;10.70;;;;;;;2.38;81.06;101263.56;4996399;28;20041;-55
2022/01/11 01:01:56;;;;;;;16.10;11.73;;;;;;;2.37;80.82;101262.69;5014027;28;20104;-55
2022/01/11 01:04:24;;;;;;;14.38;10.52;;;;;;;2.35;81.06;101261.69;5013960;28;20557;-55
2022/01/11 01:06:52;;;;;;;15.65;11.52;;;;;;;2.35;80.86;101268.47;5014093;28;20065;-54
2022/01/11 01:09:33;;;;;;;18.88;11.23;;;;;;;2.32;80.73;101271.72;4996477;28;20034;-55
2022/01/11 01:12:01;;;;;;;14.48;10.27;;;;;;;2.32;80.83;101292.19;4996724;28;20038;-55
2022/01/11 01:14:26;;;;;;;18.70;11.07;;;;;;;2.31;80.87;101313.41;4996247;28;20092;-54
2022/01/11 01:17:00;;;;;;;15.70;11.60;;;;;;;2.30;80.68;101301.41;5013962;28;20041;-55
2022/01/11 01:19:27;;;;;;;14.15;10.52;;;;;;;2.31;80.65;101310.00;4980233;28;20168;-55
2022/01/11 01:21:54;;;;;;;16.05;11.50;;;;;;;2.30;81.04;101311.63;5013795;28;20038;-56
2022/01/11 01:24:21;;;;;;;14.48;11.25;;;;;;;2.30;81.02;101298.84;4979825;28;20041;-55
2022/01/11 01:26:52;;;;;;;18.70;12.02;;;;;;;2.30;80.99;101292.84;4980412;28;20033;-55
2022/01/11 01:29:17;;;;;;;15.30;10.70;;;;;;;2.31;80.95;101320.22;4979942;28;20037;-55
2022/01/11 01:31:49;;;;;;;16.55;11.13;;;;;;;2.30;81.20;101321.00;5013656;28;20038;-54
2022/01/11 01:34:17;;;;;;;19.60;11.77;;;;;;;2.29;81.04;101320.09;4996291;28;20046;-54
2022/01/11 01:36:43;;;;;;;19.00;10.85;;;;;;;2.28;81.30;101310.63;4979782;28;20038;-54
2022/01/11 01:39:09;;;;;;;16.38;11.10;;;;;;;2.29;81.11;101302.19;4980219;28;20046;-55
2022/01/11 01:41:42;;;;;;;16.25;11.20;;;;;;;2.28;81.18;101320.88;5014421;28;20092;-55
2022/01/11 01:44:12;;;;;;;18.30;11.73;;;;;;;2.28;80.84;101333.66;4996601;28;20049;-56
2022/01/11 01:46:48;;;;;;;18.92;11.48;;;;;;;2.28;80.76;101328.56;4980048;28;20050;-55
2022/01/11 01:49:19;;;;;;;17.73;10.90;;;;;;;2.29;81.24;101325.22;5013615;28;20429;-55
2022/01/11 01:51:48;;;;;;;18.13;11.63;;;;;;;2.28;81.06;101316.66;5013971;28;20049;-54
2022/01/11 01:54:14;;;;;;;16.80;10.77;;;;;;;2.28;80.71;101308.09;4979783;28;20033;-54
2022/01/11 01:56:40;;;;;;;16.52;10.95;;;;;;;2.25;80.85;101316.44;4979705;28;20038;-55
2022/01/11 01:59:09;;;;;;;17.13;11.43;;;;;;;2.26;80.86;101319.88;5013553;28;20544;-55
2022/01/11 02:01:46;;;;;;;15.98;11.30;;;;;;;2.25;80.64;101315.56;4995490;28;20100;-55
2022/01/11 02:04:17;;;;;;;15.57;11.68;;;;;;;2.23;80.77;101309.47;4996617;28;20056;-55
2022/01/11 02:06:45;;;;;;;15.55;10.02;;;;;;;2.22;81.13;101313.66;4979723;28;20030;-55
2022/01/11 02:09:17;;;;;;;16.67;12.20;;;;;;;2.21;81.07;101322.13;5012995;28;20383;-54
2022/01/11 02:11:43;;;;;;;19.38;11.48;;;;;;;2.22;80.80;101318.78;4979776;28;20038;-56
2022/01/11 02:14:11;;;;;;;16.20;11.23;;;;;;;2.22;80.71;101315.34;5013503;28;20087;-55
2022/01/11 02:16:40;;;;;;;15.07;11.13;;;;;;;2.25;81.16;101325.81;4979395;28;20034;-56
2022/01/11 02:19:11;;;;;;;19.05;10.80;;;;;;;2.23;81.20;101325.69;4979609;28;20033;-55
2022/01/11 02:21:40;;;;;;;14.90;11.13;;;;;;;2.24;81.14;101324.91;4995802;28;20505;-55
2022/01/11 02:24:06;;;;;;;16.50;11.50;;;;;;;2.25;80.87;101336.03;5012921;28;20049;-55
2022/01/11 02:26:34;;;;;;;17.50;10.85;;;;;;;2.28;80.89;101334.56;5013209;28;20485;-55
2022/01/11 02:29:03;;;;;;;16.00;10.65;;;;;;;2.28;80.80;101336.22;4979199;28;20038;-55
2022/01/11 02:31:37;;;;;;;16.90;11.82;;;;;;;2.29;81.20;101340.56;5013492;28;20030;-55
2022/01/11 02:34:05;;;;;;;14.30;10.52;;;;;;;2.29;81.06;101338.00;4996232;28;20038;-55
2022/01/11 02:36:33;;;;;;;17.27;10.68;;;;;;;2.30;81.09;101339.78;5013128;28;20564;-55
2022/01/11 02:39:03;;;;;;;16.45;10.52;;;;;;;2.29;80.77;101343.13;4979323;28;20030;-55
2022/01/11 02:41:30;;;;;;;15.52;10.18;;;;;;;2.30;81.08;101342.34;4979433;28;20084;-55
2022/01/11 02:43:57;;;;;;;15.82;10.75;;;;;;;2.30;81.04;101339.78;4981759;28;20547;-54
2022/01/11 02:46:25;;;;;;;13.95;9.73;;;;;;;2.31;80.71;101336.44;4983350;28;20069;-55
2022/01/11 02:48:55;;;;;;;13.27;9.82;;;;;;;2.30;80.85;101347.47;5016386;28;20120;-55
2022/01/11 02:51:27;;;;;;;18.38;10.65;;;;;;;2.30;80.76;101339.78;4999304;28;20080;-55
2022/01/11 02:53:54;;;;;;;15.27;9.93;;;;;;;2.31;80.95;101335.56;5016182;28;20037;-54
2022/01/11 02:56:26;;;;;;;17.10;12.23;;;;;;;2.29;80.85;101338.00;4998888;28;20140;-55
2022/01/11 02:58:54;;;;;;;21.65;11.52;;;;;;;2.27;80.76;101335.34;4983485;28;20393;-55
2022/01/11 03:01:23;;;;;;;14.43;10.20;;;;;;;2.26;80.65;101335.22;4998711;28;20034;-55
2022/01/11 03:03:51;;;;;;;13.77;9.82;;;;;;;2.25;80.96;101333.47;5016619;28;20038;-55
2022/01/11 03:06:20;;;;;;;17.80;11.70;;;;;;;2.24;80.81;101330.00;4999010;28;20036;-55
2022/01/11 03:08:52;;;;;;;16.63;12.02;;;;;;;2.22;80.54;101331.56;4982484;28;20077;-55
2022/01/11 03:11:21;;;;;;;14.70;10.68;;;;;;;2.22;81.00;101338.38;4998504;28;20088;-55
2022/01/11 03:13:50;;;;;;;16.38;10.80;;;;;;;2.21;80.70;101347.69;4982578;28;20038;-54
2022/01/11 03:16:21;;;;;;;13.75;9.63;;;;;;;2.20;80.60;101352.72;5016007;28;20179;-54
2022/01/11 03:18:50;;;;;;;14.88;10.95;;;;;;;2.20;80.53;101353.59;4982387;28;20398;-56
2022/01/11 03:21:15;;;;;;;13.90;9.18;;;;;;;2.19;80.87;101351.81;4998630;28;20116;-55
2022/01/11 03:23:46;;;;;;;21.95;10.20;;;;;;;2.22;80.92;101357.16;4999018;28;20061;-55
2022/01/11 03:26:14;;;;;;;17.90;10.93;;;;;;;2.22;80.55;101354.59;5016584;28;20108;-56
2022/01/11 03:28:46;;;;;;;15.90;11.50;;;;;;;2.24;80.59;101354.72;4982140;28;20516;-55
2022/01/11 03:31:19;;;;;;;13.73;10.23;;;;;;;2.24;80.52;101363.28;5016060;28;20050;-54
2022/01/11 03:33:47;;;;;;;15.27;10.63;;;;;;;2.24;80.60;101352.16;4981951;28;20049;-55
2022/01/11 03:36:13;;;;;;;16.48;10.10;;;;;;;2.24;80.71;101355.59;4998305;28;20037;-55
2022/01/11 03:38:41;;;;;;;15.40;9.73;;;;;;;2.25;80.41;101356.50;5015960;28;20034;-55
2022/01/11 03:41:13;;;;;;;13.13;9.25;;;;;;;2.25;80.76;101366.75;5015934;28;20385;-55
2022/01/11 03:43:41;;;;;;;18.45;11.18;;;;;;;2.25;80.99;101361.63;5015869;28;20057;-55
2022/01/11 03:46:12;;;;;;;16.80;9.30;;;;;;;2.25;80.69;101359.06;4981942;28;20034;-55
2022/01/11 03:48:43;;;;;;;15.85;9.60;;;;;;;2.25;80.99;101365.06;5015326;28;20041;-54
2022/01/11 03:51:12;;;;;;;13.57;9.35;;;;;;;2.25;81.03;101366.75;5015750;28;20030;-55
2022/01/11 03:54:03;;;;;;;13.70;10.18;;;;;;;2.27;80.67;101365.16;4982119;28;20034;-55
2022/01/11 03:56:32;;;;;;;13.20;9.45;;;;;;;2.26;80.85;101360.81;5015486;28;20042;-55
2022/01/11 03:58:58;;;;;;;13.13;9.52;;;;;;;2.24;81.03;101360.72;4998207;28;20048;-55
2022/01/11 04:01:25;;;;;;;13.63;9.98;;;;;;;2.24;80.77;101367.53;5015202;28;20121;-54
2022/01/11 04:03:53;;;;;;;15.10;10.13;;;;;;;2.20;80.89;101366.38;4981367;28;20033;-55
2022/01/11 04:06:19;;;;;;;17.05;10.07;;;;;;;2.20;80.73;101368.94;4997691;28;20473;-54
2022/01/11 04:08:48;;;;;;;15.07;9.48;;;;;;;2.18;80.82;101373.06;5015087;28;20034;-55
2022/01/11 04:11:19;;;;;;;12.88;8.40;;;;;;;2.16;81.04;101377.22;4981409;28;20037;-55
2022/01/11 04:13:47;;;;;;;16.55;9.93;;;;;;;2.15;81.00;101372.88;5014636;28;20034;-56
2022/01/11 04:16:19;;;;;;;13.07;8.23;;;;;;;2.12;80.84;101363.28;4981540;28;20099;-55
2022/01/11 04:18:47;;;;;;;16.58;9.07;;;;;;;2.09;80.78;101365.66;4997504;28;20124;-54
2022/01/11 04:21:13;;;;;;;16.65;9.25;;;;;;;2.10;80.53;101369.06;5014909;28;20069;-54
2022/01/11 04:23:44;;;;;;;19.50;9.95;;;;;;;2.09;80.34;101364.75;5014877;28;20448;-55
2022/01/11 04:26:09;;;;;;;11.55;8.75;;;;;;;2.09;80.66;101367.31;4981134;28;20125;-56
2022/01/11 04:28:38;;;;;;;13.55;9.57;;;;;;;2.07;80.55;101374.88;5014949;28;20116;-55
2022/01/11 04:31:06;;;;;;;13.13;8.98;;;;;;;2.04;80.45;101369.53;4980942;28;20037;-55
2022/01/11 04:33:43;;;;;;;14.18;9.70;;;;;;;2.02;80.56;101367.66;4980934;28;20038;-55
2022/01/11 04:36:09;;;;;;;13.60;8.85;;;;;;;2.02;80.75;101372.78;5014978;28;20072;-55
2022/01/11 04:38:40;;;;;;;14.38;9.48;;;;;;;2.01;80.58;101376.97;5014664;28;20085;-56
2022/01/11 04:41:06;;;;;;;13.60;9.00;;;;;;;2.00;80.53;101369.22;4981463;28;20037;-54
2022/01/11 04:43:35;;;;;;;16.58;9.43;;;;;;;1.96;80.34;101366.44;4997444;28;20034;-55
2022/01/11 04:46:00;;;;;;;14.63;9.07;;;;;;;1.98;80.51;101367.44;4980678;28;20038;-55
2022/01/11 04:48:32;;;;;;;17.52;8.52;;;;;;;1.99;80.96;101368.31;4997373;28;20045;-55
2022/01/11 04:51:00;;;;;;;14.57;9.15;;;;;;;1.98;80.33;101367.44;4996755;28;20069;-55
2022/01/11 04:53:27;;;;;;;15.25;9.98;;;;;;;2.00;80.43;101366.66;4980741;28;20100;-55
2022/01/11 04:55:58;;;;;;;11.55;8.65;;;;;;;1.98;80.72;101363.97;5014380;28;20041;-55
2022/01/11 04:58:24;;;;;;;15.90;9.52;;;;;;;1.98;80.79;101380.22;5014269;28;20117;-55
2022/01/11 05:00:50;;;;;;;14.25;9.73;;;;;;;1.98;80.86;101372.53;5014445;28;20124;-55
2022/01/11 05:03:19;;;;;;;17.52;11.23;;;;;;;1.96;81.05;101373.19;5011208;28;20091;-55
2022/01/11 05:05:48;;;;;;;16.75;9.43;;;;;;;1.96;80.64;101375.75;5033499;28;20041;-56
2022/01/11 05:08:14;;;;;;;13.10;8.38;;;;;;;1.95;80.61;101371.41;5016580;28;20467;-55
2022/01/11 05:10:42;;;;;;;11.82;8.80;;;;;;;1.95;80.67;101368.84;5033797;28;20040;-55
2022/01/11 05:13:12;;;;;;;14.23;9.18;;;;;;;1.92;80.67;101363.53;5016301;28;20436;-54
2022/01/11 05:15:41;;;;;;;14.05;9.63;;;;;;;1.90;80.91;101372.78;5034062;28;20061;-55
2022/01/11 05:18:08;;;;;;;13.20;9.13;;;;;;;1.90;80.39;101375.31;5032455;28;20038;-54
2022/01/11 05:20:37;;;;;;;13.80;9.32;;;;;;;1.90;80.42;101372.78;5015797;28;20087;-55
2022/01/11 05:23:06;;;;;;;14.45;9.40;;;;;;;1.90;80.55;101371.09;5015997;28;20109;-55
2022/01/11 05:25:35;;;;;;;12.90;8.85;;;;;;;1.90;80.54;101378.75;5033717;28;20030;-55
2022/01/11 05:28:00;;;;;;;12.23;9.18;;;;;;;1.91;80.35;101375.44;5015829;28;20048;-55
2022/01/11 05:30:29;;;;;;;13.60;8.63;;;;;;;1.91;80.61;101370.31;5033085;28;20037;-54
2022/01/11 05:32:55;;;;;;;18.25;10.48;;;;;;;1.91;80.57;101369.44;5033536;28;20444;-55
2022/01/11 05:35:22;;;;;;;13.48;9.18;;;;;;;1.92;80.47;101379.75;5033535;28;20064;-54
2022/01/11 05:37:48;;;;;;;20.55;10.27;;;;;;;1.92;80.66;101372.09;5033306;28;20047;-55
2022/01/11 05:40:18;;;;;;;16.35;10.02;;;;;;;1.89;80.42;101374.41;5016286;28;20034;-55
2022/01/11 05:42:49;;;;;;;13.13;8.60;;;;;;;1.87;80.60;101372.53;5032114;28;20103;-55
2022/01/11 05:45:18;;;;;;;13.50;9.55;;;;;;;1.88;80.54;101382.88;5032170;28;20477;-55
2022/01/11 05:47:48;;;;;;;12.45;9.25;;;;;;;1.88;80.12;101385.41;5033344;28;20493;-55
2022/01/11 05:50:14;;;;;;;17.45;9.63;;;;;;;1.88;80.10;101390.53;5031947;28;20061;-55
2022/01/11 05:52:43;;;;;;;21.33;9.35;;;;;;;1.86;80.65;101404.00;5015851;28;20042;-54
2022/01/11 05:55:12;;;;;;;12.63;8.35;;;;;;;1.86;80.53;101393.78;5033348;28;20050;-55
2022/01/11 05:57:41;;;;;;;12.55;8.02;;;;;;;1.86;80.60;101391.22;5015472;28;20034;-55
2022/01/11 06:00:10;;;;;;;14.73;8.65;;;;;;;1.86;80.19;101393.78;5015575;28;20550;-55
2022/01/11 06:02:44;;;;;;;14.15;8.70;;;;;;;1.85;80.51;101395.44;5032013;28;20050;-55
2022/01/11 06:05:10;;;;;;;13.63;7.90;;;;;;;1.85;80.45;101395.44;5033163;28;20056;-55
2022/01/11 06:07:37;;;;;;;16.23;9.40;;;;;;;1.87;80.35;101398.09;5032855;28;20523;-55
2022/01/11 06:10:07;;;;;;;13.90;8.80;;;;;;;1.89;80.70;101406.78;5015772;28;20046;-56
2022/01/11 06:12:35;;;;;;;12.88;8.63;;;;;;;1.88;80.20;101400.75;5032046;28;20087;-54
2022/01/11 06:15:07;;;;;;;15.52;9.10;;;;;;;1.90;80.63;101403.44;5031941;28;20045;-55
2022/01/11 06:17:40;;;;;;;15.93;9.43;;;;;;;1.89;80.42;101402.53;5033541;28;20080;-55
2022/01/11 06:20:09;;;;;;;12.15;9.07;;;;;;;1.90;80.53;101404.31;5019069;28;20567;-55
2022/01/11 06:22:42;;;;;;;14.10;8.40;;;;;;;1.90;80.42;101406.88;5037021;28;20041;-55
2022/01/11 06:25:10;;;;;;;14.73;10.00;;;;;;;1.91;80.46;101410.34;5036912;28;20040;-55
2022/01/11 06:27:40;;;;;;;13.63;8.88;;;;;;;1.90;80.26;101409.44;5036604;28;20058;-55
2022/01/11 06:30:12;;;;;;;13.98;7.57;;;;;;;1.91;80.45;101405.22;5035754;28;20240;-55
2022/01/11 06:32:38;;;;;;;13.70;8.52;;;;;;;1.91;80.33;101408.66;5019576;28;20045;-55
2022/01/11 06:35:05;;;;;;;11.65;8.07;;;;;;;1.90;80.25;101401.78;5036365;28;20393;-55
2022/01/11 06:37:39;;;;;;;14.88;8.98;;;;;;;1.89;80.57;101412.78;5036813;28;20033;-54
2022/01/11 06:40:05;;;;;;;13.02;8.38;;;;;;;1.88;80.38;101410.13;5019186;28;20035;-55
2022/01/11 06:42:33;;;;;;;15.20;8.55;;;;;;;1.89;80.08;101422.13;5036388;28;20095;-55
2022/01/11 06:45:01;;;;;;;12.63;9.00;;;;;;;1.90;80.76;101423.91;5036256;28;20042;-55
2022/01/11 06:47:29;;;;;;;15.07;8.90;;;;;;;1.88;80.33;101421.22;5018778;28;20082;-56
2022/01/11 06:50:05;;;;;;;16.80;8.73;;;;;;;1.88;80.38;101425.47;5035011;28;20084;-55
2022/01/11 06:52:33;;;;;;;14.13;8.25;;;;;;;1.88;80.50;101425.47;5018378;28;20037;-55
2022/01/11 06:55:05;;;;;;;11.18;8.15;;;;;;;1.88;80.87;101430.56;5035259;28;20090;-55
2022/01/11 06:57:36;;;;;;;14.45;8.70;;;;;;;1.87;80.20;101424.56;5036614;28;20424;-55
2022/01/11 07:00:07;;;;;;;11.95;8.25;;;;;;;1.88;80.34;101434.00;5035236;28;20481;-55
2022/01/11 07:02:36;;;;;;;14.57;8.23;;;;;;;1.87;80.16;101436.47;5018181;28;20117;-55
2022/01/11 07:05:03;;;;;;;14.18;8.00;;;;;;;1.87;80.51;101439.03;5036224;28;20037;-55
2022/01/11 07:07:32;;;;;;;14.52;8.88;;;;;;;1.86;80.70;101442.34;5036216;28;20038;-55
2022/01/11 07:10:00;;;;;;;14.63;8.88;;;;;;;1.84;80.53;101437.13;5018242;28;20037;-55
2022/01/11 07:12:26;;;;;;;13.82;8.75;;;;;;;1.82;80.50;101442.13;5018867;28;20532;-55
2022/01/11 07:14:53;;;;;;;17.23;9.70;;;;;;;1.80;80.29;101446.22;5035961;28;20477;-55
2022/01/11 07:17:23;;;;;;;14.05;8.32;;;;;;;1.81;80.09;101454.81;5018048;28;20491;-54
2022/01/11 07:19:53;;;;;;;14.55;8.40;;;;;;;1.81;80.37;101459.91;5034953;28;20458;-55
2022/01/11 07:22:19;;;;;;;18.05;9.98;;;;;;;1.81;80.72;101463.34;5018845;28;20088;-55
2022/01/11 07:24:45;;;;;;;13.60;8.38;;;;;;;1.82;80.37;101461.69;5035885;28;20037;-55
2022/01/11 07:27:15;;;;;;;13.48;8.95;;;;;;;1.81;80.07;101458.22;5035709;28;20037;-54
2022/01/11 07:29:40;;;;;;;12.95;8.32;;;;;;;1.85;80.47;101468.69;5034199;28;20119;-55
2022/01/11 07:32:09;;;;;;;15.02;9.23;;;;;;;1.83;80.19;101463.47;5034660;28;20080;-55
2022/01/11 07:34:35;;;;;;;15.55;9.18;;;;;;;1.85;80.29;101473.81;5034287;28;20473;-55
2022/01/11 07:37:00;;;;;;;14.93;8.20;;;;;;;1.85;80.26;101468.69;5035619;28;20029;-55
2022/01/11 07:39:37;;;;;;;16.08;9.52;;;;;;;1.85;79.91;101471.25;5034067;28;20045;-55
2022/01/11 07:42:08;;;;;;;16.75;9.25;;;;;;;1.85;80.20;101486.59;5018188;28;20409;-55
2022/01/11 07:44:40;;;;;;;13.10;8.68;;;;;;;1.86;80.25;101486.72;5033938;28;20481;-55
2022/01/11 07:47:08;;;;;;;16.30;8.40;;;;;;;1.86;80.32;101490.94;5035475;28;20063;-56
2022/01/11 07:49:34;;;;;;;13.48;8.50;;;;;;;1.84;80.12;101493.38;5035702;28;20124;-54
2022/01/11 07:52:02;;;;;;;14.57;9.15;;;;;;;1.85;80.07;101500.28;5035541;28;20120;-55
2022/01/11 07:54:28;;;;;;;21.75;11.20;;;;;;;1.83;80.05;101499.28;5035188;28;20037;-55
2022/01/11 07:56:53;;;;;;;12.98;9.00;;;;;;;1.81;79.81;101501.69;5034189;28;20080;-55
2022/01/11 07:59:26;;;;;;;12.63;8.13;;;;;;;1.80;80.08;101506.72;5034984;28;20041;-54
2022/01/11 08:01:53;;;;;;;12.93;8.75;;;;;;;1.80;80.01;101509.25;5029285;28;20067;-55
2022/01/11 08:04:19;;;;;;;17.17;9.07;;;;;;;1.79;80.27;101513.47;4998057;28;20056;-55
2022/01/11 08:06:46;;;;;;;12.27;8.55;;;;;;;1.78;80.45;101515.94;5014890;28;20034;-55
2022/01/11 08:09:14;;;;;;;16.25;8.73;;;;;;;1.77;80.37;101515.06;5015136;28;20083;-55
2022/01/11 08:11:45;;;;;;;17.92;9.65;;;;;;;1.78;80.16;101524.50;4997696;28;20038;-55
2022/01/11 08:14:11;;;;;;;13.20;9.45;;;;;;;1.76;80.46;101525.13;4997430;28;20084;-54
2022/01/11 08:16:36;;;;;;;12.45;8.32;;;;;;;1.75;80.00;101529.38;4981711;28;20038;-54
2022/01/11 08:19:02;;;;;;;19.60;8.25;;;;;;;1.76;79.85;101537.91;4997428;28;20413;-54
2022/01/11 08:21:28;;;;;;;17.30;9.25;;;;;;;1.77;80.11;101540.63;5015045;28;20123;-54
2022/01/11 08:23:56;;;;;;;15.38;8.88;;;;;;;1.79;80.02;101548.38;5015189;28;20045;-55
2022/01/11 08:26:22;;;;;;;11.95;8.40;;;;;;;1.81;79.95;101544.28;4981101;28;20049;-54
2022/01/11 08:28:47;;;;;;;15.10;8.65;;;;;;;1.82;80.09;101544.38;4997142;28;20428;-55
2022/01/11 08:31:13;;;;;;;16.58;9.98;;;;;;;1.82;80.07;101543.50;5014950;28;20500;-55
2022/01/11 08:33:38;;;;;;;18.02;8.93;;;;;;;1.82;80.39;101552.06;5014813;28;20112;-55
2022/01/11 08:36:06;;;;;;;18.17;9.05;;;;;;;1.82;80.23;101558.84;4997575;28;20049;-55
2022/01/11 08:38:31;;;;;;;14.18;8.88;;;;;;;1.79;79.91;101562.03;4997160;28;20499;-56
2022/01/11 08:40:57;;;;;;;13.82;9.10;;;;;;;1.78;79.71;101567.97;5013998;28;20045;-54
2022/01/11 08:43:22;;;;;;;16.80;9.85;;;;;;;1.76;79.56;101564.41;4996947;28;20055;-55
2022/01/11 08:45:48;;;;;;;17.60;9.63;;;;;;;1.78;80.43;101564.50;5014632;28;20116;-56
2022/01/11 08:48:15;;;;;;;14.95;9.50;;;;;;;1.77;80.42;101572.94;5014350;28;20678;-55
2022/01/11 08:50:41;;;;;;;14.68;9.35;;;;;;;1.73;79.92;101553.94;5014338;28;20030;-55
2022/01/11 08:53:07;;;;;;;12.68;9.00;;;;;;;1.75;80.06;101556.59;4997097;28;20034;-55
2022/01/11 08:55:34;;;;;;;16.50;9.63;;;;;;;1.73;80.02;101556.50;4996899;28;20037;-55
2022/01/11 08:57:59;;;;;;;14.52;9.43;;;;;;;1.74;80.08;101555.72;4980513;28;20034;-55
2022/01/11 09:00:26;;;;;;;14.40;9.40;;;;;;;1.73;79.59;101558.13;5014158;28;20053;-56
2022/01/11 09:02:52;;;;;;;14.65;8.68;;;;;;;1.71;80.47;101552.03;5016339;28;20049;-54
2022/01/11 09:05:19;;;;;;;16.10;8.23;;;;;;;1.70;79.94;101548.56;5014094;28;20038;-54
2022/01/11 09:07:45;;;;;;;18.75;9.38;;;;;;;1.70;79.91;101551.13;4979985;28;20034;-55
2022/01/11 09:10:11;;;;;;;11.13;7.95;;;;;;;1.71;79.50;101557.16;5013943;28;20084;-55
2022/01/11 09:12:38;;;;;;;14.52;10.13;;;;;;;1.70;79.82;101561.38;4980337;28;20038;-54
2022/01/11 09:15:06;;;;;;;14.20;8.60;;;;;;;1.69;79.75;101554.47;4996557;28;20045;-55
2022/01/11 09:17:32;;;;;;;11.75;8.40;;;;;;;1.69;79.87;101553.59;4980635;28;20030;-55
2022/01/11 09:20:00;;;;;;;12.57;8.55;;;;;;;1.69;79.79;101557.03;4980154;28;20515;-56
2022/01/11 09:22:26;;;;;;;13.43;8.40;;;;;;;1.69;80.16;101556.16;4980229;28;20489;-55
2022/01/11 09:24:56;;;;;;;12.13;8.20;;;;;;;1.67;80.28;101549.25;4980347;28;20413;-55
2022/01/11 09:27:21;;;;;;;12.07;8.18;;;;;;;1.68;79.64;101550.13;5013360;28;20041;-55
2022/01/11 09:29:47;;;;;;;16.95;8.48;;;;;;;1.69;79.83;101549.34;4996486;28;20044;-54
2022/01/11 09:32:13;;;;;;;12.70;9.48;;;;;;;1.69;79.72;101551.03;5013712;28;20571;-55
2022/01/11 09:34:40;;;;;;;13.13;8.43;;;;;;;1.68;79.17;101555.22;4980064;28;20481;-54
2022/01/11 09:37:07;;;;;;;15.50;9.25;;;;;;;1.65;79.71;101544.78;4980129;28;20026;-55
2022/01/11 09:39:33;;;;;;;11.68;8.95;;;;;;;1.66;79.74;101549.09;4980098;28;20045;-55
2022/01/11 09:41:59;;;;;;;12.25;8.32;;;;;;;1.65;80.27;101549.88;5013694;28;20034;-55
2022/01/11 09:44:25;;;;;;;14.15;8.93;;;;;;;1.66;79.93;101559.34;4996272;28;20485;-55
2022/01/11 09:46:55;;;;;;;13.88;8.32;;;;;;;1.65;79.74;101558.47;4996047;28;20038;-55
2022/01/11 09:49:21;;;;;;;13.90;8.98;;;;;;;1.65;79.77;101557.56;4979762;28;20038;-55
2022/01/11 09:51:46;;;;;;;14.60;8.55;;;;;;;1.65;79.60;101567.78;5014988;28;20034;-55
2022/01/11 09:54:12;;;;;;;17.10;8.38;;;;;;;1.64;79.53;101563.44;5019973;28;20036;-55
2022/01/11 09:56:39;;;;;;;13.80;8.27;;;;;;;1.63;79.47;101567.66;5020065;28;20030;-55
2022/01/11 09:59:06;;;;;;;15.00;8.85;;;;;;;1.65;79.37;101568.69;5019985;28;20042;-54
2022/01/11 10:01:36;;;;;;;13.70;8.95;;;;;;;1.63;79.39;101567.66;5002540;28;20034;-55
2022/01/11 10:04:07;;;;;;;13.93;8.60;;;;;;;1.63;79.54;101561.69;5019866;28;20044;-55
2022/01/11 10:06:37;;;;;;;14.55;9.20;;;;;;;1.62;79.58;101567.56;4986032;28;20045;-56
2022/01/11 10:09:18;;;;;;;17.15;9.30;;;;;;;1.63;79.78;101567.66;5001996;28;20038;-55
2022/01/11 10:11:49;;;;;;;11.48;8.02;;;;;;;1.64;79.84;101568.53;4986652;28;20032;-55
2022/01/11 10:14:34;;;;;;;13.57;9.57;;;;;;;1.63;79.54;101566.78;4985740;28;20053;-56
2022/01/11 10:17:10;;;;;;;15.30;9.52;;;;;;;1.63;79.37;101566.78;5002279;28;20038;-54
2022/01/11 10:19:45;;;;;;;13.15;9.07;;;;;;;1.64;79.66;101564.34;4985951;28;20041;-55
2022/01/11 10:22:13;;;;;;;15.20;7.90;;;;;;;1.64;79.22;101553.22;4986181;28;20396;-55
2022/01/11 10:24:42;;;;;;;12.75;8.55;;;;;;;1.64;79.47;101555.75;5002167;28;20561;-55
2022/01/11 10:27:13;;;;;;;13.35;8.40;;;;;;;1.67;79.65;101566.22;4985983;28;20478;-55
2022/01/11 10:29:57;;;;;;;13.75;8.35;;;;;;;1.67;79.30;101569.69;4985886;28;20069;-55
2022/01/11 10:32:45;;;;;;;15.63;7.75;;;;;;;1.69;79.28;101563.81;4986373;28;20069;-55
2022/01/11 10:35:13;;;;;;;17.48;7.82;;;;;;;1.72;79.63;101567.47;4986485;28;20037;-55
2022/01/11 10:37:42;;;;;;;12.90;9.07;;;;;;;1.75;79.48;101570.28;5002206;28;20104;-55
2022/01/11 10:40:18;;;;;;;14.32;9.82;;;;;;;1.78;79.46;101573.06;4985814;28;20034;-54
2022/01/11 10:42:48;;;;;;;14.57;8.63;;;;;;;1.80;79.15;101571.50;4986472;28;20073;-55
2022/01/11 10:45:17;;;;;;;17.40;10.05;;;;;;;1.83;79.84;101571.75;5002265;28;20045;-54
2022/01/11 10:47:47;;;;;;;13.30;8.23;;;;;;;1.83;79.53;101579.41;5002393;28;20053;-54
2022/01/11 10:50:29;;;;;;;17.17;8.73;;;;;;;1.87;79.58;101575.41;4985563;28;20048;-55
2022/01/11 10:53:00;;;;;;;18.00;8.93;;;;;;;1.90;79.28;101580.75;5001964;28;20504;-55
2022/01/11 10:55:30;;;;;;;13.20;8.73;;;;;;;1.94;79.47;101584.47;4986231;28;20486;-54
2022/01/11 10:58:00;;;;;;;14.88;8.77;;;;;;;1.94;79.56;101587.03;5002082;28;20038;-55
2022/01/11 11:00:31;;;;;;;15.63;8.10;;;;;;;1.97;79.32;101589.78;4986394;28;20103;-55
2022/01/11 11:03:10;;;;;;;14.32;8.55;;;;;;;1.99;79.05;101585.69;4985125;28;20181;-55
2022/01/11 11:05:38;;;;;;;16.80;8.25;;;;;;;2.01;79.30;101585.81;5016486;28;20033;-55
2022/01/11 11:08:10;;;;;;;13.52;8.30;;;;;;;2.03;79.46;101590.25;4982564;28;20489;-55
2022/01/11 11:10:43;;;;;;;12.88;9.07;;;;;;;2.05;79.08;101583.59;4998674;28;20128;-55
2022/01/11 11:13:16;;;;;;;16.50;7.25;;;;;;;2.08;79.14;101586.41;4982640;28;20048;-55
2022/01/11 11:15:42;;;;;;;14.38;7.90;;;;;;;2.12;79.19;101593.50;4982510;28;20055;-55
2022/01/11 11:18:23;;;;;;;13.27;7.43;;;;;;;2.17;79.65;101593.88;4998467;28;20061;-56
2022/01/11 11:20:48;;;;;;;11.60;7.20;;;;;;;2.19;79.19;101588.84;4982894;28;20038;-55
2022/01/11 11:23:20;;;;;;;12.52;7.47;;;;;;;2.22;79.36;101591.66;5015987;28;20060;-56
2022/01/11 11:25:48;;;;;;;12.30;7.15;;;;;;;2.25;79.26;101594.44;4998721;28;20033;-55
2022/01/11 11:28:17;;;;;;;10.68;7.80;;;;;;;2.28;79.40;101593.00;4998822;28;20428;-55
2022/01/11 11:30:50;;;;;;;11.48;6.70;;;;;;;2.31;79.11;101597.44;4982091;28;20092;-55